sensor_id;sensor_type;location;lat;lon;timestamp;pressure;altitude;pressure_sealevel;temperature;humidity
23253;BME280;11795;47.054;15.408;2024-03-25T00:00:00;96430;;;3.6;80.1
23253;BME280;11795;47.054;15.408;2024-03-25T00:02:00;96440;;;3.5;80.6
23253;BME280;11795;47.054;15.408;2024-03-25T00:04:00;96450;;;3.7;80.0
23253;BME280;11795;47.054;15.408;2024-03-25T00:06:00;96440;;;3.5;80.5
23253;BME280;11795;47.054;15.408;2024-03-25T00:08:00;96450;;;3.7;80.1
23253;BME280;11795;47.054;15.408;2024-03-25T00:10:00;96450;;;3.5;80.6
23253;BME280;11795;47.054;15.408;2024-03-25T00:12:00;96450;;;3.5;80.9
23253;BME280;11795;47.054;15.408;2024-03-25T00:14:00;96450;;;3.7;79.5
23253;BME280;11795;47.054;15.408;2024-03-25T00:16:01;96450;;;3.5;80.0
23253;BME280;11795;47.054;15.408;2024-03-25T00:18:01;96440;;;3.7;79.5
23253;BME280;11795;47.054;15.408;2024-03-25T00:20:00;96440;;;3.7;79.4
23253;BME280;11795;47.054;15.408;2024-03-25T00:22:00;96440;;;3.5;79.4
23253;BME280;11795;47.054;15.408;2024-03-25T00:24:01;96440;;;3.5;80.0
23253;BME280;11795;47.054;15.408;2024-03-25T00:26:00;96450;;;3.4;80.3
23253;BME280;11795;47.054;15.408;2024-03-25T00:28:00;96450;;;3.7;79.4
23253;BME280;11795;47.054;15.408;2024-03-25T00:30:00;96460;;;3.5;79.4
23253;BME280;11795;47.054;15.408;2024-03-25T00:32:00;96460;;;3.3;80.1
23253;BME280;11795;47.054;15.408;2024-03-25T00:34:00;96460;;;3.4;79.7
23253;BME280;11795;47.054;15.408;2024-03-25T00:36:00;96460;;;3.3;80.1
23253;BME280;11795;47.054;15.408;2024-03-25T00:38:00;96450;;;3.5;79.7
23253;BME280;11795;47.054;15.408;2024-03-25T00:40:00;96450;;;3.2;80.3
23253;BME280;11795;47.054;15.408;2024-03-25T00:42:00;96450;;;3.2;81.0
23253;BME280;11795;47.054;15.408;2024-03-25T00:44:00;96450;;;3.4;80.4
23253;BME280;11795;47.054;15.408;2024-03-25T00:46:00;96450;;;3.3;80.8
23253;BME280;11795;47.054;15.408;2024-03-25T00:48:00;96450;;;3.5;80.1
23253;BME280;11795;47.054;15.408;2024-03-25T00:50:00;96450;;;3.3;80.5
23253;BME280;11795;47.054;15.408;2024-03-25T00:52:00;96450;;;3.3;80.8
23253;BME280;11795;47.054;15.408;2024-03-25T00:54:00;96450;;;3.5;79.9
23253;BME280;11795;47.054;15.408;2024-03-25T00:56:00;96450;;;3.3;80.5
23253;BME280;11795;47.054;15.408;2024-03-25T00:58:00;96450;;;3.5;80.3
23253;BME280;11795;47.054;15.408;2024-03-25T01:00:00;96450;;;3.3;80.2
23253;BME280;11795;47.054;15.408;2024-03-25T01:02:00;96450;;;3.2;80.7
23253;BME280;11795;47.054;15.408;2024-03-25T01:04:00;96450;;;3.2;80.4
23253;BME280;11795;47.054;15.408;2024-03-25T01:06:00;96450;;;3.1;81.3
23253;BME280;11795;47.054;15.408;2024-03-25T01:08:00;96450;;;3.3;80.5
23253;BME280;11795;47.054;15.408;2024-03-25T01:10:00;96440;;;3.2;80.5
23253;BME280;11795;47.054;15.408;2024-03-25T01:12:00;96440;;;3.1;80.8
23253;BME280;11795;47.054;15.408;2024-03-25T01:14:00;96440;;;3.2;80.2
23253;BME280;11795;47.054;15.408;2024-03-25T01:16:00;96430;;;3.0;80.7
23253;BME280;11795;47.054;15.408;2024-03-25T01:18:00;96430;;;3.2;80.4
23253;BME280;11795;47.054;15.408;2024-03-25T01:20:00;96430;;;3.0;80.6
23253;BME280;11795;47.054;15.408;2024-03-25T01:22:00;96430;;;3.0;80.9
23253;BME280;11795;47.054;15.408;2024-03-25T01:24:00;96430;;;3.1;80.3
23253;BME280;11795;47.054;15.408;2024-03-25T01:26:00;96430;;;3.0;80.9
23253;BME280;11795;47.054;15.408;2024-03-25T01:28:00;96430;;;3.1;80.8
23253;BME280;11795;47.054;15.408;2024-03-25T01:30:01;96440;;;3.0;81.0
23253;BME280;11795;47.054;15.408;2024-03-25T01:32:01;96440;;;3.0;81.1
23253;BME280;11795;47.054;15.408;2024-03-25T01:34:00;96440;;;3.0;80.6
23253;BME280;11795;47.054;15.408;2024-03-25T01:36:00;96430;;;3.0;80.9
23253;BME280;11795;47.054;15.408;2024-03-25T01:38:00;96430;;;3.2;80.5
23253;BME280;11795;47.054;15.408;2024-03-25T01:40:00;96430;;;3.0;80.8
23253;BME280;11795;47.054;15.408;2024-03-25T01:42:00;96430;;;2.9;81.1
23253;BME280;11795;47.054;15.408;2024-03-25T01:44:00;96440;;;3.0;80.7
23253;BME280;11795;47.054;15.408;2024-03-25T01:46:00;96440;;;2.9;81.1
23253;BME280;11795;47.054;15.408;2024-03-25T01:48:02;96440;;;3.1;80.1
23253;BME280;11795;47.054;15.408;2024-03-25T01:50:01;96430;;;2.9;80.2
23253;BME280;11795;47.054;15.408;2024-03-25T01:52:00;96430;;;2.8;80.6
23253;BME280;11795;47.054;15.408;2024-03-25T01:54:01;96430;;;2.9;80.2
23253;BME280;11795;47.054;15.408;2024-03-25T01:56:01;96420;;;2.7;80.8
23253;BME280;11795;47.054;15.408;2024-03-25T01:58:01;96420;;;3.0;80.2
23253;BME280;11795;47.054;15.408;2024-03-25T02:00:00;96430;;;2.8;80.4
23253;BME280;11795;47.054;15.408;2024-03-25T02:02:00;96430;;;2.7;80.9
23253;BME280;11795;47.054;15.408;2024-03-25T02:04:00;96430;;;2.8;80.5
23253;BME280;11795;47.054;15.408;2024-03-25T02:06:02;96430;;;2.6;81.2
23253;BME280;11795;47.054;15.408;2024-03-25T02:08:01;96430;;;2.8;80.9
23253;BME280;11795;47.054;15.408;2024-03-25T02:10:00;96430;;;2.6;81.5
23253;BME280;11795;47.054;15.408;2024-03-25T02:12:01;96430;;;2.5;81.9
23253;BME280;11795;47.054;15.408;2024-03-25T02:14:00;96420;;;2.7;81.2
23253;BME280;11795;47.054;15.408;2024-03-25T02:16:00;96420;;;2.7;81.3
23253;BME280;11795;47.054;15.408;2024-03-25T02:18:00;96420;;;2.8;80.9
23253;BME280;11795;47.054;15.408;2024-03-25T02:20:00;96420;;;2.6;81.2
23253;BME280;11795;47.054;15.408;2024-03-25T02:22:00;96430;;;2.6;81.4
23253;BME280;11795;47.054;15.408;2024-03-25T02:24:05;96430;;;2.6;80.9
23253;BME280;11795;47.054;15.408;2024-03-25T02:26:00;96430;;;2.5;81.5
23253;BME280;11795;47.054;15.408;2024-03-25T02:28:01;96430;;;2.7;81.2
23253;BME280;11795;47.054;15.408;2024-03-25T02:30:03;96420;;;2.6;81.3
23253;BME280;11795;47.054;15.408;2024-03-25T02:32:00;96420;;;2.5;81.8
23253;BME280;11795;47.054;15.408;2024-03-25T02:34:00;96420;;;2.6;81.1
23253;BME280;11795;47.054;15.408;2024-03-25T02:36:00;96420;;;2.5;81.6
23253;BME280;11795;47.054;15.408;2024-03-25T02:38:00;96420;;;2.8;80.7
23253;BME280;11795;47.054;15.408;2024-03-25T02:40:01;96420;;;2.6;80.5
23253;BME280;11795;47.054;15.408;2024-03-25T02:42:00;96430;;;2.4;81.1
23253;BME280;11795;47.054;15.408;2024-03-25T02:44:00;96430;;;2.5;80.9
23253;BME280;11795;47.054;15.408;2024-03-25T02:46:00;96430;;;2.4;81.4
23253;BME280;11795;47.054;15.408;2024-03-25T02:48:00;96430;;;2.5;81.4
23253;BME280;11795;47.054;15.408;2024-03-25T02:50:00;96430;;;2.3;81.8
23253;BME280;11795;47.054;15.408;2024-03-25T02:52:00;96430;;;2.3;82.1
23253;BME280;11795;47.054;15.408;2024-03-25T02:54:00;96430;;;2.4;81.5
23253;BME280;11795;47.054;15.408;2024-03-25T02:56:00;96430;;;2.3;82.0
23253;BME280;11795;47.054;15.408;2024-03-25T02:58:00;96440;;;2.5;81.7
23253;BME280;11795;47.054;15.408;2024-03-25T03:00:00;96440;;;2.3;81.9
23253;BME280;11795;47.054;15.408;2024-03-25T03:02:00;96430;;;2.3;82.3
23253;BME280;11795;47.054;15.408;2024-03-25T03:04:00;96430;;;2.4;81.8
23253;BME280;11795;47.054;15.408;2024-03-25T03:06:00;96430;;;2.2;82.9
23253;BME280;11795;47.054;15.408;2024-03-25T03:08:00;96440;;;2.5;82.5
23253;BME280;11795;47.054;15.408;2024-03-25T03:10:00;96440;;;2.3;82.5
23253;BME280;11795;47.054;15.408;2024-03-25T03:12:00;96430;;;2.2;83.7
23253;BME280;11795;47.054;15.408;2024-03-25T03:14:00;96440;;;2.4;82.7
23253;BME280;11795;47.054;15.408;2024-03-25T03:16:00;96450;;;2.4;82.6
23253;BME280;11795;47.054;15.408;2024-03-25T03:18:00;96450;;;2.5;82.2
23253;BME280;11795;47.054;15.408;2024-03-25T03:20:00;96450;;;2.4;82.3
23253;BME280;11795;47.054;15.408;2024-03-25T03:22:00;96450;;;2.4;82.2
23253;BME280;11795;47.054;15.408;2024-03-25T03:24:00;96450;;;2.5;81.4
23253;BME280;11795;47.054;15.408;2024-03-25T03:26:00;96450;;;2.4;81.7
23253;BME280;11795;47.054;15.408;2024-03-25T03:28:00;96450;;;2.5;81.2
23253;BME280;11795;47.054;15.408;2024-03-25T03:30:00;96450;;;2.2;82.1
23253;BME280;11795;47.054;15.408;2024-03-25T03:32:00;96450;;;2.3;81.8
23253;BME280;11795;47.054;15.408;2024-03-25T03:34:00;96450;;;2.4;81.3
23253;BME280;11795;47.054;15.408;2024-03-25T03:36:00;96450;;;2.2;82.1
23253;BME280;11795;47.054;15.408;2024-03-25T03:38:00;96460;;;2.4;82.1
23253;BME280;11795;47.054;15.408;2024-03-25T03:40:00;96450;;;2.2;81.9
23253;BME280;11795;47.054;15.408;2024-03-25T03:42:00;96450;;;2.1;82.4
23253;BME280;11795;47.054;15.408;2024-03-25T03:44:00;96450;;;2.3;81.9
23253;BME280;11795;47.054;15.408;2024-03-25T03:46:00;96450;;;2.1;82.4
23253;BME280;11795;47.054;15.408;2024-03-25T03:48:00;96450;;;2.3;82.1
23253;BME280;11795;47.054;15.408;2024-03-25T03:50:00;96450;;;2.1;82.1
23253;BME280;11795;47.054;15.408;2024-03-25T03:52:00;96450;;;2.1;82.4
23253;BME280;11795;47.054;15.408;2024-03-25T03:54:00;96450;;;2.2;81.7
23253;BME280;11795;47.054;15.408;2024-03-25T03:56:03;96450;;;2.1;82.1
23253;BME280;11795;47.054;15.408;2024-03-25T03:58:00;96450;;;2.3;81.8
23253;BME280;11795;47.054;15.408;2024-03-25T04:00:00;96450;;;2.2;81.2
23253;BME280;11795;47.054;15.408;2024-03-25T04:02:00;96450;;;2.1;81.4
23253;BME280;11795;47.054;15.408;2024-03-25T04:04:00;96450;;;2.1;81.0
23253;BME280;11795;47.054;15.408;2024-03-25T04:06:07;96460;;;2.0;81.5
23253;BME280;11795;47.054;15.408;2024-03-25T04:08:00;96460;;;2.2;81.6
23253;BME280;11795;47.054;15.408;2024-03-25T04:10:00;96460;;;2.0;81.5
23253;BME280;11795;47.054;15.408;2024-03-25T04:12:00;96450;;;2.0;81.9
23253;BME280;11795;47.054;15.408;2024-03-25T04:14:00;96450;;;2.2;81.0
23253;BME280;11795;47.054;15.408;2024-03-25T04:16:02;96460;;;2.1;81.4
23253;BME280;11795;47.054;15.408;2024-03-25T04:18:00;96470;;;2.2;81.3
23253;BME280;11795;47.054;15.408;2024-03-25T04:20:00;96470;;;2.0;81.4
23253;BME280;11795;47.054;15.408;2024-03-25T04:22:00;96480;;;1.9;81.9
23253;BME280;11795;47.054;15.408;2024-03-25T04:24:00;96470;;;2.1;81.2
23253;BME280;11795;47.054;15.408;2024-03-25T04:26:01;96470;;;2.0;81.6
23253;BME280;11795;47.054;15.408;2024-03-25T04:28:00;96480;;;2.1;81.7
23253;BME280;11795;47.054;15.408;2024-03-25T04:30:00;96480;;;2.0;81.8
23253;BME280;11795;47.054;15.408;2024-03-25T04:32:00;96480;;;1.9;82.1
23253;BME280;11795;47.054;15.408;2024-03-25T04:34:00;96480;;;2.1;81.4
23253;BME280;11795;47.054;15.408;2024-03-25T04:36:00;96480;;;2.0;81.7
23253;BME280;11795;47.054;15.408;2024-03-25T04:38:00;96490;;;2.2;81.4
23253;BME280;11795;47.054;15.408;2024-03-25T04:40:00;96490;;;1.9;81.7
23253;BME280;11795;47.054;15.408;2024-03-25T04:42:00;96500;;;1.9;82.4
23253;BME280;11795;47.054;15.408;2024-03-25T04:44:00;96500;;;2.0;82.1
23253;BME280;11795;47.054;15.408;2024-03-25T04:46:00;96500;;;2.0;82.2
23253;BME280;11795;47.054;15.408;2024-03-25T04:48:00;96500;;;2.2;81.7
23253;BME280;11795;47.054;15.408;2024-03-25T04:50:00;96500;;;2.0;81.9
23253;BME280;11795;47.054;15.408;2024-03-25T04:52:00;96500;;;1.9;82.5
23253;BME280;11795;47.054;15.408;2024-03-25T04:54:00;96500;;;2.1;82.1
23253;BME280;11795;47.054;15.408;2024-03-25T04:56:00;96500;;;2.0;82.8
23253;BME280;11795;47.054;15.408;2024-03-25T04:58:00;96500;;;2.2;82.6
23253;BME280;11795;47.054;15.408;2024-03-25T05:00:00;96500;;;2.1;82.7
23253;BME280;11795;47.054;15.408;2024-03-25T05:02:00;96500;;;2.1;83.1
23253;BME280;11795;47.054;15.408;2024-03-25T05:04:00;96500;;;2.2;82.5
23253;BME280;11795;47.054;15.408;2024-03-25T05:06:00;96500;;;2.1;83.1
23253;BME280;11795;47.054;15.408;2024-03-25T05:08:03;96510;;;2.3;83.2
23253;BME280;11795;47.054;15.408;2024-03-25T05:10:00;96510;;;2.2;83.5
23253;BME280;11795;47.054;15.408;2024-03-25T05:12:00;96510;;;2.2;84.0
23253;BME280;11795;47.054;15.408;2024-03-25T05:14:00;96500;;;2.4;83.1
23253;BME280;11795;47.054;15.408;2024-03-25T05:16:00;96510;;;2.3;83.4
23253;BME280;11795;47.054;15.408;2024-03-25T05:18:00;96500;;;2.7;82.8
23253;BME280;11795;47.054;15.408;2024-03-25T05:20:00;96500;;;3.4;85.7
23253;BME280;11795;47.054;15.408;2024-03-25T05:22:00;96500;;;4.8;78.2
23253;BME280;11795;47.054;15.408;2024-03-25T05:24:01;96490;;;5.5;73.0
23253;BME280;11795;47.054;15.408;2024-03-25T05:26:00;96500;;;5.6;70.1
23253;BME280;11795;47.054;15.408;2024-03-25T05:28:00;96500;;;5.5;69.6
23253;BME280;11795;47.054;15.408;2024-03-25T05:30:00;96510;;;5.0;70.0
23253;BME280;11795;47.054;15.408;2024-03-25T05:32:01;96510;;;4.6;71.0
23253;BME280;11795;47.054;15.408;2024-03-25T05:34:02;96510;;;4.5;71.5
23253;BME280;11795;47.054;15.408;2024-03-25T05:36:01;96520;;;4.1;72.6
23253;BME280;11795;47.054;15.408;2024-03-25T05:38:01;96520;;;4.1;73.7
23253;BME280;11795;47.054;15.408;2024-03-25T05:40:00;96510;;;3.8;74.4
23253;BME280;11795;47.054;15.408;2024-03-25T05:42:00;96520;;;3.7;75.4
23253;BME280;11795;47.054;15.408;2024-03-25T05:44:00;96520;;;3.8;74.8
23253;BME280;11795;47.054;15.408;2024-03-25T05:46:00;96530;;;3.7;75.0
23253;BME280;11795;47.054;15.408;2024-03-25T05:48:00;96530;;;3.8;75.0
23253;BME280;11795;47.054;15.408;2024-03-25T05:50:02;96530;;;3.5;75.6
23253;BME280;11795;47.054;15.408;2024-03-25T05:52:00;96540;;;3.4;76.4
23253;BME280;11795;47.054;15.408;2024-03-25T05:54:01;96540;;;3.5;76.5
23253;BME280;11795;47.054;15.408;2024-03-25T05:56:00;96550;;;3.4;76.7
23253;BME280;11795;47.054;15.408;2024-03-25T05:58:00;96550;;;3.5;76.8
23253;BME280;11795;47.054;15.408;2024-03-25T06:00:00;96550;;;3.4;77.2
23253;BME280;11795;47.054;15.408;2024-03-25T06:02:00;96560;;;3.3;77.9
23253;BME280;11795;47.054;15.408;2024-03-25T06:04:00;96560;;;3.5;77.6
23253;BME280;11795;47.054;15.408;2024-03-25T06:06:01;96560;;;3.4;78.3
23253;BME280;11795;47.054;15.408;2024-03-25T06:08:00;96550;;;3.6;78.2
23253;BME280;11795;47.054;15.408;2024-03-25T06:10:00;96560;;;3.4;78.1
23253;BME280;11795;47.054;15.408;2024-03-25T06:12:00;96570;;;3.3;78.5
23253;BME280;11795;47.054;15.408;2024-03-25T06:14:00;96570;;;3.4;78.0
23253;BME280;11795;47.054;15.408;2024-03-25T06:16:00;96580;;;3.4;78.4
23253;BME280;11795;47.054;15.408;2024-03-25T06:18:00;96580;;;3.6;78.2
23253;BME280;11795;47.054;15.408;2024-03-25T06:20:00;96580;;;3.5;77.7
23253;BME280;11795;47.054;15.408;2024-03-25T06:22:00;96570;;;3.5;77.5
23253;BME280;11795;47.054;15.408;2024-03-25T06:24:00;96580;;;3.6;76.8
23253;BME280;11795;47.054;15.408;2024-03-25T06:26:00;96580;;;3.5;76.9
23253;BME280;11795;47.054;15.408;2024-03-25T06:28:00;96580;;;3.7;76.8
23253;BME280;11795;47.054;15.408;2024-03-25T06:36:00;96580;;;3.7;76.0
23253;BME280;11795;47.054;15.408;2024-03-25T06:38:00;96580;;;3.8;76.6
23253;BME280;11795;47.054;15.408;2024-03-25T06:40:00;96580;;;3.8;76.8
23253;BME280;11795;47.054;15.408;2024-03-25T06:42:00;96580;;;3.6;77.4
23253;BME280;11795;47.054;15.408;2024-03-25T06:44:00;96580;;;3.7;77.4
23253;BME280;11795;47.054;15.408;2024-03-25T06:46:00;96580;;;3.7;77.8
23253;BME280;11795;47.054;15.408;2024-03-25T06:48:00;96580;;;3.7;78.1
23253;BME280;11795;47.054;15.408;2024-03-25T06:50:00;96580;;;3.7;78.3
23253;BME280;11795;47.054;15.408;2024-03-25T06:52:00;96580;;;3.7;78.5
23253;BME280;11795;47.054;15.408;2024-03-25T06:54:00;96580;;;3.8;77.9
23253;BME280;11795;47.054;15.408;2024-03-25T06:56:01;96570;;;3.7;78.2
23253;BME280;11795;47.054;15.408;2024-03-25T06:58:00;96570;;;3.8;78.3
23253;BME280;11795;47.054;15.408;2024-03-25T07:00:00;96580;;;3.8;78.1
23253;BME280;11795;47.054;15.408;2024-03-25T07:02:00;96580;;;3.8;78.4
23253;BME280;11795;47.054;15.408;2024-03-25T07:04:01;96580;;;3.9;77.8
23253;BME280;11795;47.054;15.408;2024-03-25T07:06:01;96590;;;3.8;78.2
23253;BME280;11795;47.054;15.408;2024-03-25T07:08:00;96590;;;3.9;78.6
23253;BME280;11795;47.054;15.408;2024-03-25T07:10:00;96580;;;3.8;78.7
23253;BME280;11795;47.054;15.408;2024-03-25T07:12:00;96570;;;3.8;79.0
23253;BME280;11795;47.054;15.408;2024-03-25T07:14:00;96580;;;4.1;78.6
23253;BME280;11795;47.054;15.408;2024-03-25T07:16:00;96580;;;4.2;79.7
23253;BME280;11795;47.054;15.408;2024-03-25T07:18:00;96580;;;4.6;78.5
23253;BME280;11795;47.054;15.408;2024-03-25T07:20:02;96580;;;4.7;77.1
23253;BME280;11795;47.054;15.408;2024-03-25T07:22:00;96580;;;4.6;75.5
23253;BME280;11795;47.054;15.408;2024-03-25T07:24:00;96580;;;4.9;75.2
23253;BME280;11795;47.054;15.408;2024-03-25T07:40:00;96600;;;5.8;72.1
23253;BME280;11795;47.054;15.408;2024-03-25T07:42:00;96600;;;5.8;71.7
23253;BME280;11795;47.054;15.408;2024-03-25T07:44:00;96610;;;6.0;70.5
23253;BME280;11795;47.054;15.408;2024-03-25T07:46:00;96600;;;5.8;70.6
23253;BME280;11795;47.054;15.408;2024-03-25T07:48:00;96600;;;5.7;71.2
23253;BME280;11795;47.054;15.408;2024-03-25T07:50:00;96610;;;5.8;71.0
23253;BME280;11795;47.054;15.408;2024-03-25T07:52:00;96610;;;5.8;71.5
23253;BME280;11795;47.054;15.408;2024-03-25T07:54:00;96610;;;6.0;71.0
23253;BME280;11795;47.054;15.408;2024-03-25T07:56:00;96610;;;5.8;71.3
23253;BME280;11795;47.054;15.408;2024-03-25T07:58:00;96600;;;6.0;71.3
23253;BME280;11795;47.054;15.408;2024-03-25T08:00:00;96600;;;5.9;70.9
23253;BME280;11795;47.054;15.408;2024-03-25T08:02:00;96610;;;5.9;71.4
23253;BME280;11795;47.054;15.408;2024-03-25T08:04:02;96610;;;6.1;70.9
23253;BME280;11795;47.054;15.408;2024-03-25T08:06:00;96610;;;6.1;71.7
23253;BME280;11795;47.054;15.408;2024-03-25T08:08:00;96610;;;6.4;72.1
23253;BME280;11795;47.054;15.408;2024-03-25T08:10:00;96610;;;6.6;72.3
23253;BME280;11795;47.054;15.408;2024-03-25T08:12:00;96610;;;6.7;71.5
23253;BME280;11795;47.054;15.408;2024-03-25T08:14:00;96600;;;7.2;70.8
23253;BME280;11795;47.054;15.408;2024-03-25T08:16:00;96600;;;7.4;71.0
23253;BME280;11795;47.054;15.408;2024-03-25T08:18:00;96600;;;7.8;69.9
23253;BME280;11795;47.054;15.408;2024-03-25T08:20:00;96600;;;8.2;68.1
23253;BME280;11795;47.054;15.408;2024-03-25T08:22:00;96600;;;8.5;67.1
23253;BME280;11795;47.054;15.408;2024-03-25T08:24:00;96600;;;8.9;63.3
23253;BME280;11795;47.054;15.408;2024-03-25T08:26:01;96600;;;8.9;62.9
23253;BME280;11795;47.054;15.408;2024-03-25T08:28:00;96590;;;9.0;63.2
23253;BME280;11795;47.054;15.408;2024-03-25T08:30:00;96590;;;9.0;61.0
23253;BME280;11795;47.054;15.408;2024-03-25T08:32:00;96590;;;8.9;61.5
23253;BME280;11795;47.054;15.408;2024-03-25T08:34:00;96590;;;9.1;61.7
23253;BME280;11795;47.054;15.408;2024-03-25T08:36:00;96590;;;9.2;61.5
23253;BME280;11795;47.054;15.408;2024-03-25T08:38:00;96590;;;9.5;60.9
23253;BME280;11795;47.054;15.408;2024-03-25T08:40:00;96580;;;9.8;60.5
23253;BME280;11795;47.054;15.408;2024-03-25T08:42:00;96580;;;10.0;61.3
23253;BME280;11795;47.054;15.408;2024-03-25T08:44:00;96580;;;10.6;58.9
23253;BME280;11795;47.054;15.408;2024-03-25T08:46:00;96570;;;10.8;58.1
23253;BME280;11795;47.054;15.408;2024-03-25T08:54:00;96550;;;11.8;52.3
23253;BME280;11795;47.054;15.408;2024-03-25T08:56:00;96550;;;12.1;50.2
23253;BME280;11795;47.054;15.408;2024-03-25T08:58:00;96550;;;12.0;47.8
23253;BME280;11795;47.054;15.408;2024-03-25T09:00:00;96550;;;12.2;46.3
23253;BME280;11795;47.054;15.408;2024-03-25T09:02:00;96550;;;12.3;45.8
23253;BME280;11795;47.054;15.408;2024-03-25T09:04:00;96560;;;12.6;45.4
23253;BME280;11795;47.054;15.408;2024-03-25T09:06:01;96550;;;12.6;45.4
23253;BME280;11795;47.054;15.408;2024-03-25T09:08:00;96550;;;12.8;45.3
23253;BME280;11795;47.054;15.408;2024-03-25T09:12:00;96550;;;13.1;41.5
23253;BME280;11795;47.054;15.408;2024-03-25T09:14:04;96550;;;13.0;42.3
23253;BME280;11795;47.054;15.408;2024-03-25T09:16:00;96550;;;12.9;44.2
23253;BME280;11795;47.054;15.408;2024-03-25T09:18:01;96550;;;13.3;45.9
23253;BME280;11795;47.054;15.408;2024-03-25T09:20:01;96550;;;13.6;43.3
23253;BME280;11795;47.054;15.408;2024-03-25T09:22:00;96560;;;13.7;43.5
23253;BME280;11795;47.054;15.408;2024-03-25T09:24:00;96550;;;14.0;42.9
23253;BME280;11795;47.054;15.408;2024-03-25T09:26:00;96550;;;13.9;41.3
23253;BME280;11795;47.054;15.408;2024-03-25T09:28:01;96550;;;14.1;40.0
23253;BME280;11795;47.054;15.408;2024-03-25T09:30:01;96550;;;14.1;38.9
23253;BME280;11795;47.054;15.408;2024-03-25T09:32:00;96550;;;14.2;40.1
23253;BME280;11795;47.054;15.408;2024-03-25T09:34:00;96550;;;14.3;39.9
23253;BME280;11795;47.054;15.408;2024-03-25T09:36:00;96540;;;14.1;39.1
23253;BME280;11795;47.054;15.408;2024-03-25T09:38:00;96550;;;13.7;38.0
23253;BME280;11795;47.054;15.408;2024-03-25T09:40:00;96550;;;12.9;39.8
23253;BME280;11795;47.054;15.408;2024-03-25T09:42:01;96550;;;12.6;38.7
23253;BME280;11795;47.054;15.408;2024-03-25T09:44:00;96550;;;12.9;40.0
23253;BME280;11795;47.054;15.408;2024-03-25T09:46:01;96550;;;13.4;40.0
23253;BME280;11795;47.054;15.408;2024-03-25T09:48:02;96550;;;13.8;39.6
23253;BME280;11795;47.054;15.408;2024-03-25T09:50:02;96550;;;14.3;38.9
23253;BME280;11795;47.054;15.408;2024-03-25T09:52:01;96550;;;13.9;39.5
23253;BME280;11795;47.054;15.408;2024-03-25T09:54:00;96550;;;14.4;38.3
23253;BME280;11795;47.054;15.408;2024-03-25T09:56:00;96540;;;14.5;36.7
23253;BME280;11795;47.054;15.408;2024-03-25T09:58:02;96540;;;14.5;37.5
23253;BME280;11795;47.054;15.408;2024-03-25T10:00:01;96540;;;14.8;37.8
23253;BME280;11795;47.054;15.408;2024-03-25T10:02:01;96540;;;15.0;38.1
23253;BME280;11795;47.054;15.408;2024-03-25T10:04:00;96530;;;15.5;37.4
23253;BME280;11795;47.054;15.408;2024-03-25T10:06:00;96540;;;15.7;37.8
23253;BME280;11795;47.054;15.408;2024-03-25T10:08:00;96540;;;15.7;37.4
23253;BME280;11795;47.054;15.408;2024-03-25T10:10:03;96540;;;15.5;36.8
23253;BME280;11795;47.054;15.408;2024-03-25T10:12:00;96540;;;15.4;34.7
23253;BME280;11795;47.054;15.408;2024-03-25T10:14:01;96540;;;15.6;33.3
23253;BME280;11795;47.054;15.408;2024-03-25T10:16:02;96530;;;15.6;35.3
23253;BME280;11795;47.054;15.408;2024-03-25T10:18:00;96530;;;15.7;35.2
23253;BME280;11795;47.054;15.408;2024-03-25T10:20:00;96530;;;15.8;34.6
23253;BME280;11795;47.054;15.408;2024-03-25T10:22:02;96530;;;15.5;34.2
23253;BME280;11795;47.054;15.408;2024-03-25T10:24:01;96530;;;15.0;33.2
23253;BME280;11795;47.054;15.408;2024-03-25T10:26:00;96530;;;15.0;35.3
23253;BME280;11795;47.054;15.408;2024-03-25T10:28:01;96530;;;15.2;35.5
23253;BME280;11795;47.054;15.408;2024-03-25T10:30:00;96530;;;15.4;34.8
23253;BME280;11795;47.054;15.408;2024-03-25T10:32:01;96530;;;15.4;33.6
23253;BME280;11795;47.054;15.408;2024-03-25T10:34:01;96520;;;15.6;34.0
23253;BME280;11795;47.054;15.408;2024-03-25T10:36:02;96520;;;15.6;34.3
23253;BME280;11795;47.054;15.408;2024-03-25T10:38:02;96520;;;15.9;34.6
23253;BME280;11795;47.054;15.408;2024-03-25T10:40:01;96520;;;16.3;33.8
23253;BME280;11795;47.054;15.408;2024-03-25T10:42:05;96520;;;16.5;33.3
23253;BME280;11795;47.054;15.408;2024-03-25T10:44:03;96520;;;16.5;31.5
23253;BME280;11795;47.054;15.408;2024-03-25T10:46:00;96510;;;16.3;30.0
23253;BME280;11795;47.054;15.408;2024-03-25T10:48:04;96510;;;16.1;28.9
23253;BME280;11795;47.054;15.408;2024-03-25T10:50:08;96510;;;16.0;29.8
23253;BME280;11795;47.054;15.408;2024-03-25T10:52:02;96510;;;15.9;31.4
23253;BME280;11795;47.054;15.408;2024-03-25T10:54:02;96510;;;15.8;31.0
23253;BME280;11795;47.054;15.408;2024-03-25T10:56:01;96500;;;15.8;31.8
23253;BME280;11795;47.054;15.408;2024-03-25T10:58:00;96500;;;15.5;30.4
23253;BME280;11795;47.054;15.408;2024-03-25T11:00:01;96500;;;15.2;32.4
23253;BME280;11795;47.054;15.408;2024-03-25T11:02:00;96500;;;15.2;32.9
23253;BME280;11795;47.054;15.408;2024-03-25T11:04:01;96490;;;15.5;32.3
23253;BME280;11795;47.054;15.408;2024-03-25T11:06:00;96500;;;15.6;32.5
23253;BME280;11795;47.054;15.408;2024-03-25T11:08:09;96490;;;15.4;32.7
23253;BME280;11795;47.054;15.408;2024-03-25T11:10:04;96490;;;15.7;31.4
23253;BME280;11795;47.054;15.408;2024-03-25T11:12:01;96490;;;15.4;32.2
23253;BME280;11795;47.054;15.408;2024-03-25T11:14:02;96480;;;15.2;30.6
23253;BME280;11795;47.054;15.408;2024-03-25T11:16:01;96490;;;15.0;31.3
23253;BME280;11795;47.054;15.408;2024-03-25T11:18:00;96490;;;14.9;31.6
23253;BME280;11795;47.054;15.408;2024-03-25T11:20:09;96490;;;15.3;33.2
23253;BME280;11795;47.054;15.408;2024-03-25T11:22:07;96490;;;15.8;32.2
23253;BME280;11795;47.054;15.408;2024-03-25T11:24:06;96490;;;16.0;32.0
23253;BME280;11795;47.054;15.408;2024-03-25T11:26:01;96480;;;16.2;30.1
23253;BME280;11795;47.054;15.408;2024-03-25T11:28:00;96490;;;15.8;30.2
23253;BME280;11795;47.054;15.408;2024-03-25T11:30:00;96480;;;15.4;30.9
23253;BME280;11795;47.054;15.408;2024-03-25T11:32:04;96480;;;15.2;31.0
23253;BME280;11795;47.054;15.408;2024-03-25T11:34:03;96470;;;14.9;31.7
23253;BME280;11795;47.054;15.408;2024-03-25T11:36:00;96470;;;14.1;32.8
23253;BME280;11795;47.054;15.408;2024-03-25T11:38:00;96470;;;14.2;32.5
23253;BME280;11795;47.054;15.408;2024-03-25T11:40:02;96470;;;14.3;33.2
23253;BME280;11795;47.054;15.408;2024-03-25T11:42:02;96470;;;14.4;33.0
23253;BME280;11795;47.054;15.408;2024-03-25T11:44:01;96470;;;14.3;32.9
23253;BME280;11795;47.054;15.408;2024-03-25T11:46:00;96470;;;14.5;32.4